sensor_id;sensor_type;location;lat;lon;timestamp;P1;durP1;ratioP1;P2;durP2;ratioP2
71975;SDS011;60680;52.182;5.398;2023-02-03T00:01:48;6.78;;;1.42;;
71975;SDS011;60680;52.182;5.398;2023-02-03T00:04:15;7.00;;;1.10;;
71975;SDS011;60680;52.182;5.398;2023-02-03T00:06:41;8.48;;;1.60;;
71975;SDS011;60680;52.182;5.398;2023-02-03T00:09:08;6.55;;;1.73;;
71975;SDS011;60680;52.182;5.398;2023-02-03T00:11:35;11.32;;;1.02;;
71975;SDS011;60680;52.182;5.398;2023-02-03T00:14:02;8.45;;;1.25;;
71975;SDS011;60680;52.182;5.398;2023-02-03T00:16:30;7.23;;;1.20;;
71975;SDS011;60680;52.182;5.398;2023-02-03T00:18:57;5.30;;;1.33;;
71975;SDS011;60680;52.182;5.398;2023-02-03T00:21:23;5.82;;;1.38;;
71975;SDS011;60680;52.182;5.398;2023-02-03T00:23:50;6.75;;;1.02;;
71975;SDS011;60680;52.182;5.398;2023-02-03T00:26:16;6.97;;;1.27;;
71975;SDS011;60680;52.182;5.398;2023-02-03T00:28:43;4.13;;;0.83;;
71975;SDS011;60680;52.182;5.398;2023-02-03T00:31:21;6.68;;;0.75;;
71975;SDS011;60680;52.182;5.398;2023-02-03T00:33:53;4.95;;;0.80;;
71975;SDS011;60680;52.182;5.398;2023-02-03T00:36:21;5.53;;;0.80;;
71975;SDS011;60680;52.182;5.398;2023-02-03T00:38:48;7.45;;;1.23;;
71975;SDS011;60680;52.182;5.398;2023-02-03T00:41:15;6.47;;;0.90;;
71975;SDS011;60680;52.182;5.398;2023-02-03T00:43:42;7.65;;;1.00;;
71975;SDS011;60680;52.182;5.398;2023-02-03T00:46:09;6.50;;;0.90;;
71975;SDS011;60680;52.182;5.398;2023-02-03T00:48:35;6.53;;;0.70;;
71975;SDS011;60680;52.182;5.398;2023-02-03T00:53:49;7.63;;;0.87;;
71975;SDS011;60680;52.182;5.398;2023-02-03T00:56:15;5.38;;;0.82;;
71975;SDS011;60680;52.182;5.398;2023-02-03T00:58:41;3.40;;;0.60;;
71975;SDS011;60680;52.182;5.398;2023-02-03T01:01:08;7.03;;;0.80;;
71975;SDS011;60680;52.182;5.398;2023-02-03T01:03:35;8.15;;;1.10;;
71975;SDS011;60680;52.182;5.398;2023-02-03T01:06:09;7.33;;;0.93;;
71975;SDS011;60680;52.182;5.398;2023-02-03T01:08:37;5.22;;;1.10;;
71975;SDS011;60680;52.182;5.398;2023-02-03T01:11:07;5.97;;;0.90;;
71975;SDS011;60680;52.182;5.398;2023-02-03T01:13:34;4.95;;;1.15;;
71975;SDS011;60680;52.182;5.398;2023-02-03T01:16:01;6.45;;;0.90;;
71975;SDS011;60680;52.182;5.398;2023-02-03T01:18:27;10.07;;;0.93;;
71975;SDS011;60680;52.182;5.398;2023-02-03T01:20:54;5.28;;;0.68;;
71975;SDS011;60680;52.182;5.398;2023-02-03T01:23:20;5.25;;;1.00;;
71975;SDS011;60680;52.182;5.398;2023-02-03T01:25:47;5.05;;;0.75;;
71975;SDS011;60680;52.182;5.398;2023-02-03T01:28:13;5.50;;;0.70;;
71975;SDS011;60680;52.182;5.398;2023-02-03T01:30:39;5.00;;;0.77;;
71975;SDS011;60680;52.182;5.398;2023-02-03T01:33:06;3.08;;;0.68;;
71975;SDS011;60680;52.182;5.398;2023-02-03T01:35:33;3.35;;;0.50;;
71975;SDS011;60680;52.182;5.398;2023-02-03T01:38:00;6.18;;;0.60;;
71975;SDS011;60680;52.182;5.398;2023-02-03T01:40:26;10.13;;;1.20;;
71975;SDS011;60680;52.182;5.398;2023-02-03T01:42:53;5.30;;;0.77;;
71975;SDS011;60680;52.182;5.398;2023-02-03T01:45:20;4.43;;;0.60;;
71975;SDS011;60680;52.182;5.398;2023-02-03T01:47:50;2.83;;;0.80;;
71975;SDS011;60680;52.182;5.398;2023-02-03T01:50:21;6.15;;;0.93;;
71975;SDS011;60680;52.182;5.398;2023-02-03T01:52:55;6.13;;;0.70;;
71975;SDS011;60680;52.182;5.398;2023-02-03T01:55:30;5.87;;;0.87;;
71975;SDS011;60680;52.182;5.398;2023-02-03T01:58:22;4.20;;;0.88;;
71975;SDS011;60680;52.182;5.398;2023-02-03T02:00:53;9.00;;;0.80;;
71975;SDS011;60680;52.182;5.398;2023-02-03T02:03:23;5.05;;;0.70;;
71975;SDS011;60680;52.182;5.398;2023-02-03T02:05:58;3.85;;;0.60;;
71975;SDS011;60680;52.182;5.398;2023-02-03T02:08:28;7.50;;;0.73;;
71975;SDS011;60680;52.182;5.398;2023-02-03T02:10:56;6.15;;;0.45;;
71975;SDS011;60680;52.182;5.398;2023-02-03T02:13:24;4.20;;;0.60;;
71975;SDS011;60680;52.182;5.398;2023-02-03T02:16:02;5.35;;;0.68;;
71975;SDS011;60680;52.182;5.398;2023-02-03T02:18:39;4.18;;;0.30;;
71975;SDS011;60680;52.182;5.398;2023-02-03T02:24:19;6.25;;;0.77;;
71975;SDS011;60680;52.182;5.398;2023-02-03T02:35:43;2.27;;;0.50;;
71975;SDS011;60680;52.182;5.398;2023-02-03T02:38:19;3.85;;;0.68;;
71975;SDS011;60680;52.182;5.398;2023-02-03T02:40:51;8.63;;;0.50;;
71975;SDS011;60680;52.182;5.398;2023-02-03T02:43:24;3.70;;;0.50;;
71975;SDS011;60680;52.182;5.398;2023-02-03T02:46:00;2.60;;;0.30;;
71975;SDS011;60680;52.182;5.398;2023-02-03T02:51:04;1.85;;;0.30;;
71975;SDS011;60680;52.182;5.398;2023-02-03T02:53:33;1.05;;;0.30;;
71975;SDS011;60680;52.182;5.398;2023-02-03T02:56:04;2.97;;;0.40;;
71975;SDS011;60680;52.182;5.398;2023-02-03T02:58:33;3.35;;;0.38;;
71975;SDS011;60680;52.182;5.398;2023-02-03T03:01:03;4.27;;;0.30;;
71975;SDS011;60680;52.182;5.398;2023-02-03T03:03:33;4.45;;;0.30;;
71975;SDS011;60680;52.182;5.398;2023-02-03T03:06:01;2.40;;;0.28;;
71975;SDS011;60680;52.182;5.398;2023-02-03T03:08:38;2.85;;;0.40;;
71975;SDS011;60680;52.182;5.398;2023-02-03T03:11:07;5.75;;;0.40;;
71975;SDS011;60680;52.182;5.398;2023-02-03T03:13:37;3.27;;;0.60;;
71975;SDS011;60680;52.182;5.398;2023-02-03T03:16:07;3.40;;;0.30;;
71975;SDS011;60680;52.182;5.398;2023-02-03T03:18:37;4.32;;;0.40;;
71975;SDS011;60680;52.182;5.398;2023-02-03T03:21:09;3.72;;;0.55;;
71975;SDS011;60680;52.182;5.398;2023-02-03T03:23:41;2.78;;;0.30;;
71975;SDS011;60680;52.182;5.398;2023-02-03T03:26:13;1.47;;;0.30;;
71975;SDS011;60680;52.182;5.398;2023-02-03T03:28:53;3.72;;;0.45;;
71975;SDS011;60680;52.182;5.398;2023-02-03T03:31:28;5.53;;;0.50;;
71975;SDS011;60680;52.182;5.398;2023-02-03T03:33:55;2.28;;;0.40;;
71975;SDS011;60680;52.182;5.398;2023-02-03T03:36:29;1.52;;;0.30;;
71975;SDS011;60680;52.182;5.398;2023-02-03T03:39:02;3.73;;;0.30;;
71975;SDS011;60680;52.182;5.398;2023-02-03T03:44:10;4.00;;;0.40;;
71975;SDS011;60680;52.182;5.398;2023-02-03T03:46:44;1.85;;;0.20;;
71975;SDS011;60680;52.182;5.398;2023-02-03T03:49:15;2.45;;;0.30;;
71975;SDS011;60680;52.182;5.398;2023-02-03T03:51:58;3.03;;;0.30;;
71975;SDS011;60680;52.182;5.398;2023-02-03T03:54:29;2.83;;;0.30;;
71975;SDS011;60680;52.182;5.398;2023-02-03T03:57:02;2.55;;;0.25;;
71975;SDS011;60680;52.182;5.398;2023-02-03T03:59:30;4.95;;;0.30;;
71975;SDS011;60680;52.182;5.398;2023-02-03T04:02:01;3.15;;;0.20;;
71975;SDS011;60680;52.182;5.398;2023-02-03T04:04:31;5.13;;;0.40;;
71975;SDS011;60680;52.182;5.398;2023-02-03T04:06:59;4.20;;;0.32;;
71975;SDS011;60680;52.182;5.398;2023-02-03T04:09:25;2.00;;;0.30;;
71975;SDS011;60680;52.182;5.398;2023-02-03T04:11:52;3.17;;;0.30;;
71975;SDS011;60680;52.182;5.398;2023-02-03T04:14:32;4.72;;;0.20;;
71975;SDS011;60680;52.182;5.398;2023-02-03T04:17:00;2.30;;;0.30;;
71975;SDS011;60680;52.182;5.398;2023-02-03T04:19:26;2.95;;;0.40;;
71975;SDS011;60680;52.182;5.398;2023-02-03T04:21:53;3.35;;;0.43;;
71975;SDS011;60680;52.182;5.398;2023-02-03T04:24:19;3.88;;;0.47;;
71975;SDS011;60680;52.182;5.398;2023-02-03T04:26:46;7.60;;;0.50;;
71975;SDS011;60680;52.182;5.398;2023-02-03T04:29:12;2.37;;;0.30;;
71975;SDS011;60680;52.182;5.398;2023-02-03T04:31:39;5.45;;;0.52;;
71975;SDS011;60680;52.182;5.398;2023-02-03T04:34:06;4.00;;;0.40;;
71975;SDS011;60680;52.182;5.398;2023-02-03T04:36:33;5.43;;;0.30;;
71975;SDS011;60680;52.182;5.398;2023-02-03T04:38:59;4.28;;;0.40;;
71975;SDS011;60680;52.182;5.398;2023-02-03T04:41:26;1.97;;;0.20;;
71975;SDS011;60680;52.182;5.398;2023-02-03T04:43:52;5.13;;;0.40;;
71975;SDS011;60680;52.182;5.398;2023-02-03T04:46:18;1.55;;;0.20;;
71975;SDS011;60680;52.182;5.398;2023-02-03T04:48:45;6.68;;;0.40;;
71975;SDS011;60680;52.182;5.398;2023-02-03T04:51:11;3.00;;;0.30;;
71975;SDS011;60680;52.182;5.398;2023-02-03T04:53:38;4.10;;;0.93;;
71975;SDS011;60680;52.182;5.398;2023-02-03T04:56:04;2.85;;;0.20;;
71975;SDS011;60680;52.182;5.398;2023-02-03T04:58:31;2.60;;;0.30;;
71975;SDS011;60680;52.182;5.398;2023-02-03T05:00:57;5.18;;;0.50;;
71975;SDS011;60680;52.182;5.398;2023-02-03T05:03:31;5.30;;;0.82;;
71975;SDS011;60680;52.182;5.398;2023-02-03T05:05:58;5.80;;;0.53;;
71975;SDS011;60680;52.182;5.398;2023-02-03T05:08:24;3.75;;;0.30;;
71975;SDS011;60680;52.182;5.398;2023-02-03T05:10:51;5.32;;;0.70;;
71975;SDS011;60680;52.182;5.398;2023-02-03T05:13:17;4.55;;;0.75;;
71975;SDS011;60680;52.182;5.398;2023-02-03T05:15:44;5.28;;;0.60;;
71975;SDS011;60680;52.182;5.398;2023-02-03T05:18:10;6.03;;;0.97;;
71975;SDS011;60680;52.182;5.398;2023-02-03T05:20:36;4.43;;;0.30;;
71975;SDS011;60680;52.182;5.398;2023-02-03T05:23:03;2.40;;;0.43;;
71975;SDS011;60680;52.182;5.398;2023-02-03T05:25:29;2.38;;;0.30;;
71975;SDS011;60680;52.182;5.398;2023-02-03T05:27:56;3.35;;;0.35;;
71975;SDS011;60680;52.182;5.398;2023-02-03T05:30:22;4.00;;;0.40;;
71975;SDS011;60680;52.182;5.398;2023-02-03T05:32:49;2.08;;;0.22;;
71975;SDS011;60680;52.182;5.398;2023-02-03T05:35:15;8.18;;;0.40;;
71975;SDS011;60680;52.182;5.398;2023-02-03T05:37:43;3.17;;;0.40;;
71975;SDS011;60680;52.182;5.398;2023-02-03T05:40:11;3.92;;;0.73;;
71975;SDS011;60680;52.182;5.398;2023-02-03T05:42:56;3.33;;;0.40;;
71975;SDS011;60680;52.182;5.398;2023-02-03T05:45:23;4.93;;;0.55;;
71975;SDS011;60680;52.182;5.398;2023-02-03T05:47:49;3.78;;;0.20;;
71975;SDS011;60680;52.182;5.398;2023-02-03T05:50:16;5.47;;;0.60;;
71975;SDS011;60680;52.182;5.398;2023-02-03T05:52:42;7.10;;;0.45;;
71975;SDS011;60680;52.182;5.398;2023-02-03T05:55:09;3.30;;;0.23;;
71975;SDS011;60680;52.182;5.398;2023-02-03T05:57:35;4.20;;;0.60;;
71975;SDS011;60680;52.182;5.398;2023-02-03T06:00:02;3.97;;;0.43;;
71975;SDS011;60680;52.182;5.398;2023-02-03T06:02:32;6.40;;;0.40;;
71975;SDS011;60680;52.182;5.398;2023-02-03T06:04:58;4.90;;;0.45;;
71975;SDS011;60680;52.182;5.398;2023-02-03T06:07:24;3.07;;;0.30;;
71975;SDS011;60680;52.182;5.398;2023-02-03T06:09:51;6.10;;;0.30;;
71975;SDS011;60680;52.182;5.398;2023-02-03T06:12:18;6.72;;;0.60;;
71975;SDS011;60680;52.182;5.398;2023-02-03T06:14:44;4.00;;;0.30;;
71975;SDS011;60680;52.182;5.398;2023-02-03T06:17:10;2.55;;;0.38;;
71975;SDS011;60680;52.182;5.398;2023-02-03T06:19:37;2.00;;;0.20;;
71975;SDS011;60680;52.182;5.398;2023-02-03T06:22:03;5.93;;;0.40;;
71975;SDS011;60680;52.182;5.398;2023-02-03T06:24:30;5.50;;;0.30;;
71975;SDS011;60680;52.182;5.398;2023-02-03T06:26:56;6.22;;;0.40;;
71975;SDS011;60680;52.182;5.398;2023-02-03T06:29:23;6.05;;;0.50;;
71975;SDS011;60680;52.182;5.398;2023-02-03T06:31:49;7.63;;;0.40;;
71975;SDS011;60680;52.182;5.398;2023-02-03T06:34:16;5.05;;;0.50;;
71975;SDS011;60680;52.182;5.398;2023-02-03T06:36:42;2.75;;;0.40;;
71975;SDS011;60680;52.182;5.398;2023-02-03T06:39:09;3.65;;;0.68;;
71975;SDS011;60680;52.182;5.398;2023-02-03T06:41:35;6.13;;;0.32;;
71975;SDS011;60680;52.182;5.398;2023-02-03T06:44:02;6.00;;;0.40;;
71975;SDS011;60680;52.182;5.398;2023-02-03T06:46:28;3.05;;;0.30;;
71975;SDS011;60680;52.182;5.398;2023-02-03T06:48:56;5.47;;;0.88;;
71975;SDS011;60680;52.182;5.398;2023-02-03T06:51:22;3.50;;;0.30;;
71975;SDS011;60680;52.182;5.398;2023-02-03T06:53:49;3.70;;;0.40;;
71975;SDS011;60680;52.182;5.398;2023-02-03T06:56:16;5.87;;;0.40;;
71975;SDS011;60680;52.182;5.398;2023-02-03T06:58:42;5.22;;;0.60;;
71975;SDS011;60680;52.182;5.398;2023-02-03T07:01:09;3.35;;;0.38;;
71975;SDS011;60680;52.182;5.398;2023-02-03T07:03:36;4.60;;;0.50;;
71975;SDS011;60680;52.182;5.398;2023-02-03T07:06:02;5.72;;;0.60;;
71975;SDS011;60680;52.182;5.398;2023-02-03T07:08:29;5.97;;;0.33;;
71975;SDS011;60680;52.182;5.398;2023-02-03T07:10:55;4.68;;;0.20;;
71975;SDS011;60680;52.182;5.398;2023-02-03T07:13:22;7.15;;;0.75;;
71975;SDS011;60680;52.182;5.398;2023-02-03T07:15:48;5.18;;;0.32;;
71975;SDS011;60680;52.182;5.398;2023-02-03T07:18:14;5.93;;;0.65;;
71975;SDS011;60680;52.182;5.398;2023-02-03T07:21:06;5.57;;;0.63;;
71975;SDS011;60680;52.182;5.398;2023-02-03T07:23:32;6.05;;;0.68;;
71975;SDS011;60680;52.182;5.398;2023-02-03T07:25:59;6.00;;;0.60;;
71975;SDS011;60680;52.182;5.398;2023-02-03T07:28:27;9.18;;;0.77;;
71975;SDS011;60680;52.182;5.398;2023-02-03T07:30:54;5.85;;;0.50;;
71975;SDS011;60680;52.182;5.398;2023-02-03T07:33:20;3.70;;;0.40;;
71975;SDS011;60680;52.182;5.398;2023-02-03T07:35:51;3.53;;;0.45;;
71975;SDS011;60680;52.182;5.398;2023-02-03T07:38:18;7.97;;;0.63;;
71975;SDS011;60680;52.182;5.398;2023-02-03T07:40:44;6.97;;;0.60;;
71975;SDS011;60680;52.182;5.398;2023-02-03T07:43:11;3.55;;;0.55;;
71975;SDS011;60680;52.182;5.398;2023-02-03T07:45:37;4.87;;;0.77;;
71975;SDS011;60680;52.182;5.398;2023-02-03T07:48:04;7.18;;;0.50;;
71975;SDS011;60680;52.182;5.398;2023-02-03T07:50:30;6.70;;;0.75;;
71975;SDS011;60680;52.182;5.398;2023-02-03T07:52:58;4.38;;;0.50;;
71975;SDS011;60680;52.182;5.398;2023-02-03T07:55:25;2.55;;;0.32;;
71975;SDS011;60680;52.182;5.398;2023-02-03T07:57:53;3.20;;;0.60;;
71975;SDS011;60680;52.182;5.398;2023-02-03T08:00:21;9.88;;;1.17;;
71975;SDS011;60680;52.182;5.398;2023-02-03T08:02:48;4.90;;;0.60;;
71975;SDS011;60680;52.182;5.398;2023-02-03T08:05:15;4.20;;;0.50;;
71975;SDS011;60680;52.182;5.398;2023-02-03T08:07:42;8.23;;;0.90;;
71975;SDS011;60680;52.182;5.398;2023-02-03T08:10:09;7.07;;;0.50;;
71975;SDS011;60680;52.182;5.398;2023-02-03T08:12:37;5.63;;;0.60;;
71975;SDS011;60680;52.182;5.398;2023-02-03T08:15:04;5.97;;;0.68;;
71975;SDS011;60680;52.182;5.398;2023-02-03T08:17:31;5.15;;;0.50;;
71975;SDS011;60680;52.182;5.398;2023-02-03T08:20:01;4.95;;;0.43;;
71975;SDS011;60680;52.182;5.398;2023-02-03T08:22:27;7.37;;;0.60;;
71975;SDS011;60680;52.182;5.398;2023-02-03T08:24:54;8.57;;;0.45;;
71975;SDS011;60680;52.182;5.398;2023-02-03T08:27:21;5.25;;;0.32;;
71975;SDS011;60680;52.182;5.398;2023-02-03T08:29:48;10.77;;;0.60;;
71975;SDS011;60680;52.182;5.398;2023-02-03T08:32:16;5.28;;;0.55;;
71975;SDS011;60680;52.182;5.398;2023-02-03T08:34:47;6.17;;;0.50;;
71975;SDS011;60680;52.182;5.398;2023-02-03T08:37:15;5.40;;;0.63;;
71975;SDS011;60680;52.182;5.398;2023-02-03T08:39:44;4.72;;;0.60;;
71975;SDS011;60680;52.182;5.398;2023-02-03T08:42:10;4.88;;;1.02;;
71975;SDS011;60680;52.182;5.398;2023-02-03T08:44:37;7.07;;;0.65;;
71975;SDS011;60680;52.182;5.398;2023-02-03T08:47:06;3.20;;;0.50;;
71975;SDS011;60680;52.182;5.398;2023-02-03T08:49:33;3.90;;;0.40;;
71975;SDS011;60680;52.182;5.398;2023-02-03T08:52:01;1.98;;;0.50;;
71975;SDS011;60680;52.182;5.398;2023-02-03T08:54:27;4.05;;;0.50;;
71975;SDS011;60680;52.182;5.398;2023-02-03T08:56:54;7.00;;;0.50;;
71975;SDS011;60680;52.182;5.398;2023-02-03T08:59:20;6.03;;;0.53;;
71975;SDS011;60680;52.182;5.398;2023-02-03T09:01:47;6.22;;;1.17;;
71975;SDS011;60680;52.182;5.398;2023-02-03T09:04:14;6.32;;;0.70;;
71975;SDS011;60680;52.182;5.398;2023-02-03T09:06:50;3.90;;;0.50;;
71975;SDS011;60680;52.182;5.398;2023-02-03T09:09:19;4.68;;;0.80;;
71975;SDS011;60680;52.182;5.398;2023-02-03T09:11:47;7.30;;;0.60;;
71975;SDS011;60680;52.182;5.398;2023-02-03T09:14:13;7.55;;;0.65;;
71975;SDS011;60680;52.182;5.398;2023-02-03T09:16:40;6.03;;;0.60;;
71975;SDS011;60680;52.182;5.398;2023-02-03T09:19:06;5.57;;;0.60;;
71975;SDS011;60680;52.182;5.398;2023-02-03T09:21:33;5.57;;;0.80;;
71975;SDS011;60680;52.182;5.398;2023-02-03T09:24:10;6.13;;;0.83;;
71975;SDS011;60680;52.182;5.398;2023-02-03T09:26:36;4.40;;;1.15;;
71975;SDS011;60680;52.182;5.398;2023-02-03T09:29:03;6.68;;;0.88;;
71975;SDS011;60680;52.182;5.398;2023-02-03T09:31:30;4.55;;;0.55;;
71975;SDS011;60680;52.182;5.398;2023-02-03T09:33:57;3.40;;;0.60;;
71975;SDS011;60680;52.182;5.398;2023-02-03T09:36:24;7.43;;;0.60;;
71975;SDS011;60680;52.182;5.398;2023-02-03T09:38:51;5.63;;;0.60;;
71975;SDS011;60680;52.182;5.398;2023-02-03T09:46:59;3.35;;;0.95;;
71975;SDS011;60680;52.182;5.398;2023-02-03T09:49:40;6.23;;;0.50;;
71975;SDS011;60680;52.182;5.398;2023-02-03T09:52:17;5.65;;;0.50;;
71975;SDS011;60680;52.182;5.398;2023-02-03T09:54:59;5.15;;;0.57;;
71975;SDS011;60680;52.182;5.398;2023-02-03T09:57:30;5.47;;;0.45;;
71975;SDS011;60680;52.182;5.398;2023-02-03T10:00:02;4.00;;;0.52;;
71975;SDS011;60680;52.182;5.398;2023-02-03T10:08:16;7.78;;;0.70;;
71975;SDS011;60680;52.182;5.398;2023-02-03T10:10:53;7.47;;;0.63;;
71975;SDS011;60680;52.182;5.398;2023-02-03T10:13:48;8.70;;;0.55;;
71975;SDS011;60680;52.182;5.398;2023-02-03T10:16:32;2.80;;;1.13;;
71975;SDS011;60680;52.182;5.398;2023-02-03T10:19:00;7.18;;;0.50;;
71975;SDS011;60680;52.182;5.398;2023-02-03T10:24:26;5.90;;;0.52;;
71975;SDS011;60680;52.182;5.398;2023-02-03T10:26:51;3.28;;;0.50;;
71975;SDS011;60680;52.182;5.398;2023-02-03T10:29:33;5.73;;;0.50;;
71975;SDS011;60680;52.182;5.398;2023-02-03T10:32:07;4.90;;;0.52;;
71975;SDS011;60680;52.182;5.398;2023-02-03T10:34:35;4.55;;;0.40;;
71975;SDS011;60680;52.182;5.398;2023-02-03T10:37:49;4.22;;;0.57;;
71975;SDS011;60680;52.182;5.398;2023-02-03T10:40:03;3.72;;;0.40;;
71975;SDS011;60680;52.182;5.398;2023-02-03T10:42:30;6.23;;;0.50;;
71975;SDS011;60680;52.182;5.398;2023-02-03T10:45:18;5.60;;;0.38;;
71975;SDS011;60680;52.182;5.398;2023-02-03T10:47:50;4.32;;;0.52;;
71975;SDS011;60680;52.182;5.398;2023-02-03T10:50:20;7.88;;;0.60;;
71975;SDS011;60680;52.182;5.398;2023-02-03T10:52:48;4.25;;;0.50;;
71975;SDS011;60680;52.182;5.398;2023-02-03T10:57:44;5.53;;;0.65;;
71975;SDS011;60680;52.182;5.398;2023-02-03T11:00:32;6.53;;;0.60;;
71975;SDS011;60680;52.182;5.398;2023-02-03T11:05:26;4.97;;;0.50;;
71975;SDS011;60680;52.182;5.398;2023-02-03T11:07:52;4.53;;;0.70;;
71975;SDS011;60680;52.182;5.398;2023-02-03T11:10:27;4.03;;;0.70;;
71975;SDS011;60680;52.182;5.398;2023-02-03T11:13:10;7.95;;;0.60;;
71975;SDS011;60680;52.182;5.398;2023-02-03T11:21:08;5.97;;;0.70;;
71975;SDS011;60680;52.182;5.398;2023-02-03T11:23:45;4.18;;;0.45;;
71975;SDS011;60680;52.182;5.398;2023-02-03T11:26:17;3.80;;;0.88;;
71975;SDS011;60680;52.182;5.398;2023-02-03T11:28:46;4.13;;;0.60;;
71975;SDS011;60680;52.182;5.398;2023-02-03T11:31:20;6.70;;;0.90;;
71975;SDS011;60680;52.182;5.398;2023-02-03T11:33:55;5.27;;;0.57;;
71975;SDS011;60680;52.182;5.398;2023-02-03T11:36:24;6.43;;;0.45;;
71975;SDS011;60680;52.182;5.398;2023-02-03T11:38:56;5.10;;;0.80;;
71975;SDS011;60680;52.182;5.398;2023-02-03T11:41:35;6.13;;;0.63;;
71975;SDS011;60680;52.182;5.398;2023-02-03T11:44:18;8.13;;;0.47;;
71975;SDS011;60680;52.182;5.398;2023-02-03T11:46:47;4.63;;;0.67;;
71975;SDS011;60680;52.182;5.398;2023-02-03T11:55:11;4.82;;;0.95;;
71975;SDS011;60680;52.182;5.398;2023-02-03T11:57:52;4.00;;;0.60;;
71975;SDS011;60680;52.182;5.398;2023-02-03T12:03:16;7.93;;;0.60;;
71975;SDS011;60680;52.182;5.398;2023-02-03T12:06:08;4.15;;;0.80;;
71975;SDS011;60680;52.182;5.398;2023-02-03T12:14:04;6.17;;;0.90;;
71975;SDS011;60680;52.182;5.398;2023-02-03T12:16:45;4.93;;;0.90;;
71975;SDS011;60680;52.182;5.398;2023-02-03T12:25:03;6.32;;;0.88;;
71975;SDS011;60680;52.182;5.398;2023-02-03T12:27:55;6.10;;;0.97;;
71975;SDS011;60680;52.182;5.398;2023-02-03T12:33:37;3.80;;;0.60;;
71975;SDS011;60680;52.182;5.398;2023-02-03T12:36:10;3.90;;;0.90;;
71975;SDS011;60680;52.182;5.398;2023-02-03T12:39:05;5.32;;;1.17;;
71975;SDS011;60680;52.182;5.398;2023-02-03T12:41:39;6.00;;;1.10;;
71975;SDS011;60680;52.182;5.398;2023-02-03T12:44:14;13.20;;;1.63;;
71975;SDS011;60680;52.182;5.398;2023-02-03T12:47:02;8.43;;;1.50;;
71975;SDS011;60680;52.182;5.398;2023-02-03T12:49:46;7.53;;;1.23;;
71975;SDS011;60680;52.182;5.398;2023-02-03T12:52:23;7.13;;;1.10;;
71975;SDS011;60680;52.182;5.398;2023-02-03T12:54:58;9.33;;;1.20;;
71975;SDS011;60680;52.182;5.398;2023-02-03T12:57:42;9.40;;;1.30;;
71975;SDS011;60680;52.182;5.398;2023-02-03T13:03:12;3.92;;;1.10;;
71975;SDS011;60680;52.182;5.398;2023-02-03T13:08:40;8.40;;;1.07;;
71975;SDS011;60680;52.182;5.398;2023-02-03T13:11:21;5.40;;;1.08;;
71975;SDS011;60680;52.182;5.398;2023-02-03T13:13:54;9.20;;;1.80;;
71975;SDS011;60680;52.182;5.398;2023-02-03T13:16:27;14.52;;;2.83;;
71975;SDS011;60680;52.182;5.398;2023-02-03T13:19:02;9.75;;;2.17;;
71975;SDS011;60680;52.182;5.398;2023-02-03T13:21:35;14.17;;;4.37;;
71975;SDS011;60680;52.182;5.398;2023-02-03T13:24:02;10.63;;;2.00;;
71975;SDS011;60680;52.182;5.398;2023-02-03T13:29:44;13.65;;;2.17;;
71975;SDS011;60680;52.182;5.398;2023-02-03T13:38:17;11.02;;;3.03;;
71975;SDS011;60680;52.182;5.398;2023-02-03T13:41:07;9.18;;;1.40;;
71975;SDS011;60680;52.182;5.398;2023-02-03T13:43:44;11.23;;;1.67;;
71975;SDS011;60680;52.182;5.398;2023-02-03T13:46:24;8.00;;;1.75;;
71975;SDS011;60680;52.182;5.398;2023-02-03T13:48:52;10.23;;;1.63;;
71975;SDS011;60680;52.182;5.398;2023-02-03T13:51:21;13.27;;;3.65;;
71975;SDS011;60680;52.182;5.398;2023-02-03T13:53:51;9.00;;;1.88;;
71975;SDS011;60680;52.182;5.398;2023-02-03T13:56:26;14.65;;;1.92;;
71975;SDS011;60680;52.182;5.398;2023-02-03T14:01:51;17.00;;;1.10;;
71975;SDS011;60680;52.182;5.398;2023-02-03T14:25:32;11.45;;;1.65;;
71975;SDS011;60680;52.182;5.398;2023-02-03T14:28:10;10.13;;;1.50;;
71975;SDS011;60680;52.182;5.398;2023-02-03T14:31:12;14.48;;;1.48;;
71975;SDS011;60680;52.182;5.398;2023-02-03T14:41:49;11.60;;;2.57;;
71975;SDS011;60680;52.182;5.398;2023-02-03T14:47:48;9.98;;;1.42;;
71975;SDS011;60680;52.182;5.398;2023-02-03T14:50:32;8.02;;;1.23;;
71975;SDS011;60680;52.182;5.398;2023-02-03T14:55:58;12.63;;;2.57;;
71975;SDS011;60680;52.182;5.398;2023-02-03T14:58:43;13.38;;;1.98;;
71975;SDS011;60680;52.182;5.398;2023-02-03T15:06:39;12.05;;;2.95;;
71975;SDS011;60680;52.182;5.398;2023-02-03T15:11:54;13.85;;;2.15;;
71975;SDS011;60680;52.182;5.398;2023-02-03T15:17:02;13.35;;;1.25;;
71975;SDS011;60680;52.182;5.398;2023-02-03T15:19:40;13.73;;;1.20;;
71975;SDS011;60680;52.182;5.398;2023-02-03T15:25:03;15.77;;;2.10;;
71975;SDS011;60680;52.182;5.398;2023-02-03T15:27:41;9.73;;;1.70;;
71975;SDS011;60680;52.182;5.398;2023-02-03T15:32:42;15.13;;;1.38;;
71975;SDS011;60680;52.182;5.398;2023-02-03T15:35:15;10.27;;;1.40;;
71975;SDS011;60680;52.182;5.398;2023-02-03T15:37:47;13.77;;;1.60;;
71975;SDS011;60680;52.182;5.398;2023-02-03T15:40:20;14.98;;;1.67;;
71975;SDS011;60680;52.182;5.398;2023-02-03T15:42:55;10.70;;;1.10;;
71975;SDS011;60680;52.182;5.398;2023-02-03T15:47:54;11.20;;;1.50;;
71975;SDS011;60680;52.182;5.398;2023-02-03T15:50:34;14.18;;;1.33;;
71975;SDS011;60680;52.182;5.398;2023-02-03T15:53:14;19.45;;;1.92;;
71975;SDS011;60680;52.182;5.398;2023-02-03T15:55:45;13.18;;;1.23;;
71975;SDS011;60680;52.182;5.398;2023-02-03T15:58:16;9.80;;;1.75;;
71975;SDS011;60680;52.182;5.398;2023-02-03T16:00:48;13.43;;;1.73;;
71975;SDS011;60680;52.182;5.398;2023-02-03T16:03:18;14.77;;;1.55;;
71975;SDS011;60680;52.182;5.398;2023-02-03T16:05:47;15.25;;;1.20;;
71975;SDS011;60680;52.182;5.398;2023-02-03T16:11:23;11.98;;;1.30;;
71975;SDS011;60680;52.182;5.398;2023-02-03T16:13:52;11.07;;;1.23;;
71975;SDS011;60680;52.182;5.398;2023-02-03T16:16:34;7.93;;;1.27;;
71975;SDS011;60680;52.182;5.398;2023-02-03T16:19:04;13.98;;;1.92;;
71975;SDS011;60680;52.182;5.398;2023-02-03T16:29:53;14.27;;;1.88;;
71975;SDS011;60680;52.182;5.398;2023-02-03T16:33:01;11.57;;;2.65;;
71975;SDS011;60680;52.182;5.398;2023-02-03T16:35:54;12.35;;;2.28;;
71975;SDS011;60680;52.182;5.398;2023-02-03T16:38:43;16.85;;;2.00;;
71975;SDS011;60680;52.182;5.398;2023-02-03T16:41:32;15.83;;;1.67;;
71975;SDS011;60680;52.182;5.398;2023-02-03T16:44:17;12.52;;;2.20;;
71975;SDS011;60680;52.182;5.398;2023-02-03T16:47:02;15.93;;;2.25;;
71975;SDS011;60680;52.182;5.398;2023-02-03T16:49:58;15.10;;;2.75;;
71975;SDS011;60680;52.182;5.398;2023-02-03T16:53:01;12.88;;;1.38;;
71975;SDS011;60680;52.182;5.398;2023-02-03T16:55:28;11.90;;;1.20;;
71975;SDS011;60680;52.182;5.398;2023-02-03T16:57:55;11.75;;;1.98;;
71975;SDS011;60680;52.182;5.398;2023-02-03T17:00:22;11.82;;;1.80;;
71975;SDS011;60680;52.182;5.398;2023-02-03T17:02:49;10.25;;;1.70;;
71975;SDS011;60680;52.182;5.398;2023-02-03T17:05:16;17.08;;;2.03;;
71975;SDS011;60680;52.182;5.398;2023-02-03T17:07:43;12.00;;;2.47;;
71975;SDS011;60680;52.182;5.398;2023-02-03T17:10:09;16.67;;;2.67;;
71975;SDS011;60680;52.182;5.398;2023-02-03T17:12:36;14.93;;;1.90;;
71975;SDS011;60680;52.182;5.398;2023-02-03T17:15:03;8.57;;;1.58;;
71975;SDS011;60680;52.182;5.398;2023-02-03T17:17:31;19.15;;;2.53;;
71975;SDS011;60680;52.182;5.398;2023-02-03T17:19:57;9.93;;;1.70;;
71975;SDS011;60680;52.182;5.398;2023-02-03T17:22:24;15.75;;;2.03;;
71975;SDS011;60680;52.182;5.398;2023-02-03T17:24:52;17.85;;;1.80;;
71975;SDS011;60680;52.182;5.398;2023-02-03T17:27:19;17.40;;;1.75;;
71975;SDS011;60680;52.182;5.398;2023-02-03T17:29:45;14.68;;;3.97;;
71975;SDS011;60680;52.182;5.398;2023-02-03T17:32:12;13.60;;;3.50;;
71975;SDS011;60680;52.182;5.398;2023-02-03T17:34:40;22.85;;;4.60;;
71975;SDS011;60680;52.182;5.398;2023-02-03T17:37:07;14.52;;;1.98;;
71975;SDS011;60680;52.182;5.398;2023-02-03T17:39:33;16.08;;;3.47;;